sensor_id;sensor_type;location;lat;lon;timestamp;pressure;altitude;pressure_sealevel;temperature;humidity
60258;BME280;46115;44.484;11.314;2023-07-31T00:03:37;99891.34;;;25.67;63.13
60258;BME280;46115;44.484;11.314;2023-07-31T00:07:39;99888.56;;;25.75;62.67
60258;BME280;46115;44.484;11.314;2023-07-31T00:11:42;99895.72;;;25.53;63.33
60258;BME280;46115;44.484;11.314;2023-07-31T00:15:45;99902.44;;;25.57;63.58
60258;BME280;46115;44.484;11.314;2023-07-31T00:19:48;99906.59;;;25.68;62.70
60258;BME280;46115;44.484;11.314;2023-07-31T00:23:51;99889.16;;;25.62;63.57
60258;BME280;46115;44.484;11.314;2023-07-31T00:27:54;99893.78;;;25.24;64.47
60258;BME280;46115;44.484;11.314;2023-07-31T00:31:58;99902.41;;;25.42;63.81
60258;BME280;46115;44.484;11.314;2023-07-31T00:36:00;99898.41;;;25.38;63.88
60258;BME280;46115;44.484;11.314;2023-07-31T00:40:03;99895.94;;;25.29;64.22
60258;BME280;46115;44.484;11.314;2023-07-31T00:44:06;99893.19;;;25.52;63.14
60258;BME280;46115;44.484;11.314;2023-07-31T00:48:10;99898.63;;;25.66;62.64
60258;BME280;46115;44.484;11.314;2023-07-31T00:52:13;99900.25;;;25.75;62.36
60258;BME280;46115;44.484;11.314;2023-07-31T00:56:16;99911.09;;;25.53;63.13
60258;BME280;46115;44.484;11.314;2023-07-31T01:00:18;99901.13;;;25.38;63.76
60258;BME280;46115;44.484;11.314;2023-07-31T01:04:22;99900.66;;;25.35;63.91
60258;BME280;46115;44.484;11.314;2023-07-31T01:08:30;99882.09;;;25.46;63.43
60258;BME280;46115;44.484;11.314;2023-07-31T01:12:36;99892.72;;;25.33;63.99
60258;BME280;46115;44.484;11.314;2023-07-31T01:16:40;99897.16;;;25.26;64.20
60258;BME280;46115;44.484;11.314;2023-07-31T01:20:47;99898.25;;;25.17;64.67
60258;BME280;46115;44.484;11.314;2023-07-31T01:25:04;99904.56;;;25.47;63.68
60258;BME280;46115;44.484;11.314;2023-07-31T01:29:19;99915.31;;;25.17;64.19
60258;BME280;46115;44.484;11.314;2023-07-31T01:33:24;99917.94;;;25.11;64.51
60258;BME280;46115;44.484;11.314;2023-07-31T01:37:28;99917.28;;;25.24;64.09
60258;BME280;46115;44.484;11.314;2023-07-31T01:41:31;99925.66;;;25.37;63.77
60258;BME280;46115;44.484;11.314;2023-07-31T01:45:35;99913.47;;;25.18;64.38
60258;BME280;46115;44.484;11.314;2023-07-31T01:49:37;99916.44;;;25.08;64.69
60258;BME280;46115;44.484;11.314;2023-07-31T01:53:40;99915.88;;;25.13;64.61
60258;BME280;46115;44.484;11.314;2023-07-31T01:57:43;99927.97;;;25.02;65.02
60258;BME280;46115;44.484;11.314;2023-07-31T02:01:46;99921.97;;;24.84;65.73
60258;BME280;46115;44.484;11.314;2023-07-31T02:05:49;99916.16;;;25.18;64.58
60258;BME280;46115;44.484;11.314;2023-07-31T02:09:52;99930.75;;;25.32;64.33
60258;BME280;46115;44.484;11.314;2023-07-31T02:13:57;99944.81;;;25.27;64.22
60258;BME280;46115;44.484;11.314;2023-07-31T02:18:01;99930.25;;;25.13;64.72
60258;BME280;46115;44.484;11.314;2023-07-31T02:22:04;99933.91;;;25.21;64.46
60258;BME280;46115;44.484;11.314;2023-07-31T02:26:07;99932.28;;;25.11;64.80
60258;BME280;46115;44.484;11.314;2023-07-31T02:30:10;99934.72;;;25.21;64.37
60258;BME280;46115;44.484;11.314;2023-07-31T02:34:14;99935.94;;;25.18;64.61
60258;BME280;46115;44.484;11.314;2023-07-31T02:38:17;99924.94;;;25.20;64.58
60258;BME280;46115;44.484;11.314;2023-07-31T02:42:20;99926.66;;;24.90;65.53
60258;BME280;46115;44.484;11.314;2023-07-31T02:46:23;99938.13;;;25.00;65.05
60258;BME280;46115;44.484;11.314;2023-07-31T02:50:27;99937.78;;;24.95;65.28
60258;BME280;46115;44.484;11.314;2023-07-31T02:54:30;99919.16;;;24.77;65.40
60258;BME280;46115;44.484;11.314;2023-07-31T02:58:32;99943.97;;;24.81;65.82
60258;BME280;46115;44.484;11.314;2023-07-31T03:02:35;99926.91;;;24.80;65.97
60258;BME280;46115;44.484;11.314;2023-07-31T03:06:38;99932.53;;;25.02;65.39
60258;BME280;46115;44.484;11.314;2023-07-31T03:10:41;99929.25;;;24.83;65.72
60258;BME280;46115;44.484;11.314;2023-07-31T03:14:44;99936.94;;;24.72;65.98
60258;BME280;46115;44.484;11.314;2023-07-31T03:18:46;99929.97;;;24.77;65.82
60258;BME280;46115;44.484;11.314;2023-07-31T03:22:50;99928.47;;;24.75;66.00
60258;BME280;46115;44.484;11.314;2023-07-31T03:26:53;99917.72;;;24.67;66.30
60258;BME280;46115;44.484;11.314;2023-07-31T03:30:55;99913.19;;;24.59;66.45
60258;BME280;46115;44.484;11.314;2023-07-31T03:34:58;99920.88;;;24.47;66.88
60258;BME280;46115;44.484;11.314;2023-07-31T03:39:02;99934.91;;;24.43;66.88
60258;BME280;46115;44.484;11.314;2023-07-31T03:43:06;99934.50;;;24.54;66.55
60258;BME280;46115;44.484;11.314;2023-07-31T03:47:08;99942.91;;;24.36;67.30
60258;BME280;46115;44.484;11.314;2023-07-31T03:51:12;99940.03;;;24.21;67.98
60258;BME280;46115;44.484;11.314;2023-07-31T03:55:16;99946.97;;;24.32;67.58
60258;BME280;46115;44.484;11.314;2023-07-31T03:59:19;99938.94;;;24.47;66.92
60258;BME280;46115;44.484;11.314;2023-07-31T04:03:21;99955.56;;;24.36;67.42
60258;BME280;46115;44.484;11.314;2023-07-31T04:07:24;99961.16;;;24.65;66.84
60258;BME280;46115;44.484;11.314;2023-07-31T04:11:28;99963.97;;;24.72;66.34
60258;BME280;46115;44.484;11.314;2023-07-31T04:15:30;99968.84;;;23.90;69.46
60258;BME280;46115;44.484;11.314;2023-07-31T04:19:33;99959.72;;;24.46;67.54
60258;BME280;46115;44.484;11.314;2023-07-31T04:23:35;99964.09;;;24.47;67.92
60258;BME280;46115;44.484;11.314;2023-07-31T04:27:39;99953.53;;;23.50;71.40
60258;BME280;46115;44.484;11.314;2023-07-31T04:31:42;99961.94;;;23.95;70.28
60258;BME280;46115;44.484;11.314;2023-07-31T04:35:49;99960.50;;;24.16;69.39
60258;BME280;46115;44.484;11.314;2023-07-31T04:39:53;99954.84;;;23.94;69.88
60258;BME280;46115;44.484;11.314;2023-07-31T04:43:57;99965.44;;;24.04;69.55
60258;BME280;46115;44.484;11.314;2023-07-31T04:47:59;99962.00;;;24.18;69.17
60258;BME280;46115;44.484;11.314;2023-07-31T04:52:02;99971.47;;;24.14;69.26
60258;BME280;46115;44.484;11.314;2023-07-31T04:56:04;99966.72;;;24.64;67.85
60258;BME280;46115;44.484;11.314;2023-07-31T05:00:09;99982.94;;;24.64;68.24
60258;BME280;46115;44.484;11.314;2023-07-31T05:04:12;99976.53;;;24.65;67.88
60258;BME280;46115;44.484;11.314;2023-07-31T05:08:15;99983.06;;;24.70;67.80
60258;BME280;46115;44.484;11.314;2023-07-31T05:12:18;99985.53;;;24.49;68.52
60258;BME280;46115;44.484;11.314;2023-07-31T05:16:22;99989.78;;;24.43;68.51
60258;BME280;46115;44.484;11.314;2023-07-31T05:20:24;100003.00;;;24.69;67.95
60258;BME280;46115;44.484;11.314;2023-07-31T05:24:28;99994.97;;;24.84;67.40
60258;BME280;46115;44.484;11.314;2023-07-31T05:28:31;99995.72;;;25.46;66.04
60258;BME280;46115;44.484;11.314;2023-07-31T05:32:34;99995.91;;;25.22;66.65
60258;BME280;46115;44.484;11.314;2023-07-31T05:36:37;99992.47;;;25.51;65.76
60258;BME280;46115;44.484;11.314;2023-07-31T05:40:39;99994.53;;;25.64;64.82
60258;BME280;46115;44.484;11.314;2023-07-31T05:44:42;100001.06;;;25.55;65.35
60258;BME280;46115;44.484;11.314;2023-07-31T05:48:46;100000.50;;;26.26;63.08
60258;BME280;46115;44.484;11.314;2023-07-31T05:52:48;100005.00;;;26.19;63.26
60258;BME280;46115;44.484;11.314;2023-07-31T05:56:50;99997.94;;;26.69;62.67
60258;BME280;46115;44.484;11.314;2023-07-31T06:00:53;100012.00;;;27.09;61.24
60258;BME280;46115;44.484;11.314;2023-07-31T06:04:57;100000.72;;;26.90;62.10
60258;BME280;46115;44.484;11.314;2023-07-31T06:08:59;100006.19;;;27.33;60.88
60258;BME280;46115;44.484;11.314;2023-07-31T06:13:02;100007.69;;;27.85;59.24
60258;BME280;46115;44.484;11.314;2023-07-31T06:17:05;100007.44;;;27.58;60.63
60258;BME280;46115;44.484;11.314;2023-07-31T06:21:09;100005.78;;;27.36;62.75
60258;BME280;46115;44.484;11.314;2023-07-31T06:25:12;100014.44;;;27.68;62.11
60258;BME280;46115;44.484;11.314;2023-07-31T06:29:14;100015.47;;;28.22;61.02
60258;BME280;46115;44.484;11.314;2023-07-31T06:33:17;100007.50;;;28.55;59.63
60258;BME280;46115;44.484;11.314;2023-07-31T06:37:20;100017.50;;;28.48;59.81
60258;BME280;46115;44.484;11.314;2023-07-31T06:41:23;100023.06;;;28.06;61.77
60258;BME280;46115;44.484;11.314;2023-07-31T06:45:26;100025.31;;;27.95;61.68
60258;BME280;46115;44.484;11.314;2023-07-31T06:49:29;100020.94;;;28.77;59.27
60258;BME280;46115;44.484;11.314;2023-07-31T06:53:32;100025.13;;;28.79;58.55
60258;BME280;46115;44.484;11.314;2023-07-31T06:57:35;100037.72;;;28.80;58.71
60258;BME280;46115;44.484;11.314;2023-07-31T07:01:37;100006.84;;;29.08;56.87
60258;BME280;46115;44.484;11.314;2023-07-31T07:05:40;100029.34;;;29.69;55.71
60258;BME280;46115;44.484;11.314;2023-07-31T07:09:44;100038.03;;;29.12;56.42
60258;BME280;46115;44.484;11.314;2023-07-31T07:13:46;100038.38;;;30.03;54.71
60258;BME280;46115;44.484;11.314;2023-07-31T07:17:49;100020.44;;;30.60;52.52
60258;BME280;46115;44.484;11.314;2023-07-31T07:21:51;100036.47;;;30.88;51.80
60258;BME280;46115;44.484;11.314;2023-07-31T07:25:55;100046.31;;;29.71;54.00
60258;BME280;46115;44.484;11.314;2023-07-31T07:29:58;100028.19;;;29.11;54.22
60258;BME280;46115;44.484;11.314;2023-07-31T07:34:00;100036.19;;;28.65;56.06
60258;BME280;46115;44.484;11.314;2023-07-31T07:38:03;100046.31;;;30.11;52.97
60258;BME280;46115;44.484;11.314;2023-07-31T07:42:07;100035.00;;;30.21;52.33
60258;BME280;46115;44.484;11.314;2023-07-31T07:46:10;100024.94;;;29.68;54.15
60258;BME280;46115;44.484;11.314;2023-07-31T07:50:12;100036.84;;;29.28;53.58
60258;BME280;46115;44.484;11.314;2023-07-31T07:54:15;100051.41;;;30.72;50.60
60258;BME280;46115;44.484;11.314;2023-07-31T07:58:20;100045.47;;;31.33;49.64
60258;BME280;46115;44.484;11.314;2023-07-31T08:02:22;100048.47;;;31.18;49.38
60258;BME280;46115;44.484;11.314;2023-07-31T08:06:25;100050.06;;;31.89;47.66
60258;BME280;46115;44.484;11.314;2023-07-31T08:10:27;100062.22;;;32.18;48.06
60258;BME280;46115;44.484;11.314;2023-07-31T08:14:31;100069.94;;;32.03;48.16
60258;BME280;46115;44.484;11.314;2023-07-31T08:18:34;100057.84;;;31.92;47.55
60258;BME280;46115;44.484;11.314;2023-07-31T08:22:36;100055.91;;;31.74;47.76
60258;BME280;46115;44.484;11.314;2023-07-31T08:26:38;100052.38;;;31.36;48.94
60258;BME280;46115;44.484;11.314;2023-07-31T08:30:42;100048.44;;;30.02;52.01
60258;BME280;46115;44.484;11.314;2023-07-31T08:34:45;100039.78;;;29.33;54.43
60258;BME280;46115;44.484;11.314;2023-07-31T08:38:48;100023.47;;;31.21;49.34
60258;BME280;46115;44.484;11.314;2023-07-31T08:42:54;100040.94;;;31.77;48.89
60258;BME280;46115;44.484;11.314;2023-07-31T08:46:59;100023.09;;;30.73;51.60
60258;BME280;46115;44.484;11.314;2023-07-31T08:51:02;100024.41;;;30.64;51.16
60258;BME280;46115;44.484;11.314;2023-07-31T08:55:05;100017.38;;;30.88;51.11
60258;BME280;46115;44.484;11.314;2023-07-31T08:59:08;100024.31;;;32.03;48.90
60258;BME280;46115;44.484;11.314;2023-07-31T09:03:14;100038.66;;;32.42;48.07
60258;BME280;46115;44.484;11.314;2023-07-31T09:07:17;100046.56;;;33.46;45.64
60258;BME280;46115;44.484;11.314;2023-07-31T09:11:21;100036.56;;;32.92;46.29
60258;BME280;46115;44.484;11.314;2023-07-31T09:15:24;100039.88;;;31.78;48.73
60258;BME280;46115;44.484;11.314;2023-07-31T09:19:32;100041.09;;;31.82;48.61
60258;BME280;46115;44.484;11.314;2023-07-31T09:23:41;100031.13;;;32.37;48.11
60258;BME280;46115;44.484;11.314;2023-07-31T09:27:49;100036.69;;;32.24;48.25
60258;BME280;46115;44.484;11.314;2023-07-31T09:31:52;100038.41;;;32.80;47.21
60258;BME280;46115;44.484;11.314;2023-07-31T09:35:58;100014.63;;;33.10;47.23
60258;BME280;46115;44.484;11.314;2023-07-31T09:40:01;100037.34;;;32.63;47.83
60258;BME280;46115;44.484;11.314;2023-07-31T09:44:03;100027.03;;;32.95;46.29
60258;BME280;46115;44.484;11.314;2023-07-31T09:48:07;100027.84;;;32.83;46.57
60258;BME280;46115;44.484;11.314;2023-07-31T09:52:13;100027.63;;;33.27;45.29
60258;BME280;46115;44.484;11.314;2023-07-31T09:56:17;100004.25;;;33.31;45.33
60258;BME280;46115;44.484;11.314;2023-07-31T10:00:23;100024.38;;;33.36;45.61
60258;BME280;46115;44.484;11.314;2023-07-31T10:04:29;100013.78;;;32.43;46.44
60258;BME280;46115;44.484;11.314;2023-07-31T10:08:36;100017.84;;;33.49;44.31
60258;BME280;46115;44.484;11.314;2023-07-31T10:12:39;100012.66;;;31.89;47.12
60258;BME280;46115;44.484;11.314;2023-07-31T10:16:41;100021.47;;;31.91;47.15
60258;BME280;46115;44.484;11.314;2023-07-31T10:20:45;100017.16;;;32.02;46.78
60258;BME280;46115;44.484;11.314;2023-07-31T10:24:50;100014.78;;;31.87;47.08
60258;BME280;46115;44.484;11.314;2023-07-31T10:28:55;100008.59;;;32.72;45.87
60258;BME280;46115;44.484;11.314;2023-07-31T10:32:57;99994.63;;;32.25;46.42
60258;BME280;46115;44.484;11.314;2023-07-31T10:37:22;99994.00;;;31.55;47.77
60258;BME280;46115;44.484;11.314;2023-07-31T10:41:30;99997.84;;;32.40;46.34
60258;BME280;46115;44.484;11.314;2023-07-31T10:45:34;99996.44;;;32.13;46.95
60258;BME280;46115;44.484;11.314;2023-07-31T10:49:39;99994.31;;;31.97;46.87
60258;BME280;46115;44.484;11.314;2023-07-31T10:53:42;99984.38;;;31.27;48.25
60258;BME280;46115;44.484;11.314;2023-07-31T10:57:47;99974.16;;;30.27;49.36
60258;BME280;46115;44.484;11.314;2023-07-31T11:01:50;99974.16;;;31.10;48.23
60258;BME280;46115;44.484;11.314;2023-07-31T11:05:59;99985.06;;;31.23;48.49
60258;BME280;46115;44.484;11.314;2023-07-31T11:10:05;99978.41;;;30.03;50.76
60258;BME280;46115;44.484;11.314;2023-07-31T11:14:10;99977.28;;;31.13;48.92
60258;BME280;46115;44.484;11.314;2023-07-31T11:18:12;99973.94;;;31.11;49.26
60258;BME280;46115;44.484;11.314;2023-07-31T11:22:17;99975.38;;;31.20;48.58
60258;BME280;46115;44.484;11.314;2023-07-31T11:26:20;99964.94;;;31.42;48.92
60258;BME280;46115;44.484;11.314;2023-07-31T11:30:23;99964.59;;;31.00;48.12
60258;BME280;46115;44.484;11.314;2023-07-31T11:34:26;99959.00;;;31.20;48.33
60258;BME280;46115;44.484;11.314;2023-07-31T11:38:30;99961.44;;;31.60;47.72
60258;BME280;46115;44.484;11.314;2023-07-31T11:42:32;99945.34;;;31.70;47.49
60258;BME280;46115;44.484;11.314;2023-07-31T11:46:37;99944.31;;;31.46;47.03
60258;BME280;46115;44.484;11.314;2023-07-31T11:50:40;99942.69;;;31.39;47.38
60258;BME280;46115;44.484;11.314;2023-07-31T11:54:43;99935.94;;;31.41;47.46
60258;BME280;46115;44.484;11.314;2023-07-31T11:58:46;99923.25;;;30.65;48.96
60258;BME280;46115;44.484;11.314;2023-07-31T12:02:51;99925.41;;;30.88;48.44
60258;BME280;46115;44.484;11.314;2023-07-31T12:06:54;99924.13;;;30.91;49.38
60258;BME280;46115;44.484;11.314;2023-07-31T12:11:04;99896.19;;;30.95;48.79
60258;BME280;46115;44.484;11.314;2023-07-31T12:15:14;99911.78;;;30.88;49.02
60258;BME280;46115;44.484;11.314;2023-07-31T12:19:20;99898.63;;;30.34;49.93
60258;BME280;46115;44.484;11.314;2023-07-31T12:23:25;99885.34;;;30.44;48.86
60258;BME280;46115;44.484;11.314;2023-07-31T12:27:33;99869.97;;;30.56;48.48
60258;BME280;46115;44.484;11.314;2023-07-31T12:31:35;99876.28;;;31.13;47.34
60258;BME280;46115;44.484;11.314;2023-07-31T12:35:42;99876.06;;;31.15;47.55
60258;BME280;46115;44.484;11.314;2023-07-31T12:39:45;99875.75;;;30.73;47.83
60258;BME280;46115;44.484;11.314;2023-07-31T12:43:47;99867.44;;;30.93;47.76
60258;BME280;46115;44.484;11.314;2023-07-31T12:47:50;99864.13;;;31.16;46.18
60258;BME280;46115;44.484;11.314;2023-07-31T12:51:54;99852.28;;;31.22;47.10
60258;BME280;46115;44.484;11.314;2023-07-31T12:55:56;99856.06;;;31.27;47.53
60258;BME280;46115;44.484;11.314;2023-07-31T12:59:59;99856.81;;;31.53;46.28
60258;BME280;46115;44.484;11.314;2023-07-31T13:04:01;99832.28;;;31.71;46.47
60258;BME280;46115;44.484;11.314;2023-07-31T13:08:05;99848.78;;;31.40;45.99
60258;BME280;46115;44.484;11.314;2023-07-31T13:12:08;99830.69;;;31.82;45.95
60258;BME280;46115;44.484;11.314;2023-07-31T13:16:11;99822.38;;;31.70;46.24
60258;BME280;46115;44.484;11.314;2023-07-31T13:20:13;99823.91;;;31.84;45.36
60258;BME280;46115;44.484;11.314;2023-07-31T13:24:17;99817.00;;;31.27;46.00
60258;BME280;46115;44.484;11.314;2023-07-31T13:28:19;99814.88;;;31.29;46.40
60258;BME280;46115;44.484;11.314;2023-07-31T13:32:22;99790.06;;;31.06;45.94
60258;BME280;46115;44.484;11.314;2023-07-31T13:36:24;99821.50;;;31.76;44.68
60258;BME280;46115;44.484;11.314;2023-07-31T13:40:28;99816.09;;;31.88;45.10
60258;BME280;46115;44.484;11.314;2023-07-31T13:44:31;99802.19;;;31.89;44.73
60258;BME280;46115;44.484;11.314;2023-07-31T13:48:34;99791.34;;;32.01;44.55
60258;BME280;46115;44.484;11.314;2023-07-31T13:52:37;99786.81;;;32.25;44.33
60258;BME280;46115;44.484;11.314;2023-07-31T13:56:41;99778.06;;;31.86;44.99
60258;BME280;46115;44.484;11.314;2023-07-31T14:00:44;99769.03;;;31.49;45.26
60258;BME280;46115;44.484;11.314;2023-07-31T14:04:46;99784.84;;;31.84;45.45
60258;BME280;46115;44.484;11.314;2023-07-31T14:08:49;99780.06;;;31.61;45.13
60258;BME280;46115;44.484;11.314;2023-07-31T14:12:53;99774.44;;;31.74;45.31
60258;BME280;46115;44.484;11.314;2023-07-31T14:16:55;99761.69;;;31.68;44.46
60258;BME280;46115;44.484;11.314;2023-07-31T14:20:58;99765.22;;;31.87;44.09
60258;BME280;46115;44.484;11.314;2023-07-31T14:25:01;99757.28;;;31.85;43.90
60258;BME280;46115;44.484;11.314;2023-07-31T14:29:05;99749.16;;;31.42;44.58
60258;BME280;46115;44.484;11.314;2023-07-31T14:33:07;99752.78;;;31.91;43.31
60258;BME280;46115;44.484;11.314;2023-07-31T14:37:10;99750.84;;;31.80;43.80
60258;BME280;46115;44.484;11.314;2023-07-31T14:41:12;99745.97;;;31.63;43.23
60258;BME280;46115;44.484;11.314;2023-07-31T14:45:16;99749.28;;;32.02;42.79
60258;BME280;46115;44.484;11.314;2023-07-31T14:49:18;99746.81;;;31.46;45.71
60258;BME280;46115;44.484;11.314;2023-07-31T14:53:21;99721.31;;;31.52;44.90
60258;BME280;46115;44.484;11.314;2023-07-31T14:57:24;99739.41;;;31.71;44.95
60258;BME280;46115;44.484;11.314;2023-07-31T15:01:27;99719.19;;;31.54;43.89
60258;BME280;46115;44.484;11.314;2023-07-31T15:05:30;99732.09;;;31.65;43.99
60258;BME280;46115;44.484;11.314;2023-07-31T15:09:32;99714.72;;;31.41;45.33
60258;BME280;46115;44.484;11.314;2023-07-31T15:13:35;99715.56;;;31.42;45.40
60258;BME280;46115;44.484;11.314;2023-07-31T15:17:39;99706.75;;;31.21;45.87
60258;BME280;46115;44.484;11.314;2023-07-31T15:21:41;99693.50;;;31.43;45.22
60258;BME280;46115;44.484;11.314;2023-07-31T15:25:44;99713.22;;;31.45;44.59
60258;BME280;46115;44.484;11.314;2023-07-31T15:29:46;99705.00;;;31.45;44.72
60258;BME280;46115;44.484;11.314;2023-07-31T15:33:50;99705.06;;;31.75;44.29
60258;BME280;46115;44.484;11.314;2023-07-31T15:37:52;99704.88;;;31.58;42.67
60258;BME280;46115;44.484;11.314;2023-07-31T15:41:55;99710.47;;;31.45;43.36
60258;BME280;46115;44.484;11.314;2023-07-31T15:45:57;99703.72;;;31.48;44.20
60258;BME280;46115;44.484;11.314;2023-07-31T15:50:01;99715.41;;;31.73;44.02
60258;BME280;46115;44.484;11.314;2023-07-31T15:54:04;99711.75;;;31.61;44.43
60258;BME280;46115;44.484;11.314;2023-07-31T15:58:06;99711.53;;;31.62;44.30
60258;BME280;46115;44.484;11.314;2023-07-31T16:02:09;99710.41;;;31.33;45.15
60258;BME280;46115;44.484;11.314;2023-07-31T16:06:14;99715.38;;;31.55;44.39
60258;BME280;46115;44.484;11.314;2023-07-31T16:10:16;99706.59;;;31.53;44.52
60258;BME280;46115;44.484;11.314;2023-07-31T16:14:18;99713.06;;;31.58;44.69
60258;BME280;46115;44.484;11.314;2023-07-31T16:18:21;99717.84;;;31.63;45.41
60258;BME280;46115;44.484;11.314;2023-07-31T16:22:25;99714.44;;;31.31;47.17
60258;BME280;46115;44.484;11.314;2023-07-31T16:26:27;99709.59;;;31.33;47.21
60258;BME280;46115;44.484;11.314;2023-07-31T16:30:30;99701.38;;;30.96;47.77
60258;BME280;46115;44.484;11.314;2023-07-31T16:34:32;99711.09;;;30.86;48.22
60258;BME280;46115;44.484;11.314;2023-07-31T16:38:36;99714.56;;;30.99;47.89
60258;BME280;46115;44.484;11.314;2023-07-31T16:42:38;99714.81;;;31.16;48.54
60258;BME280;46115;44.484;11.314;2023-07-31T16:46:41;99705.53;;;30.99;48.88
60258;BME280;46115;44.484;11.314;2023-07-31T16:50:44;99713.13;;;30.72;50.05
60258;BME280;46115;44.484;11.314;2023-07-31T16:54:48;99709.84;;;30.88;49.86
60258;BME280;46115;44.484;11.314;2023-07-31T16:58:50;99705.66;;;30.86;50.34
60258;BME280;46115;44.484;11.314;2023-07-31T17:02:52;99703.41;;;31.01;49.84
60258;BME280;46115;44.484;11.314;2023-07-31T17:06:55;99704.19;;;30.65;50.57
60258;BME280;46115;44.484;11.314;2023-07-31T17:10:59;99699.81;;;30.82;50.26
60258;BME280;46115;44.484;11.314;2023-07-31T17:15:01;99707.63;;;30.54;51.00
60258;BME280;46115;44.484;11.314;2023-07-31T17:19:04;99708.00;;;30.57;51.47
60258;BME280;46115;44.484;11.314;2023-07-31T17:23:06;99702.94;;;30.36;50.83
60258;BME280;46115;44.484;11.314;2023-07-31T17:27:10;99709.94;;;30.50;49.11
60258;BME280;46115;44.484;11.314;2023-07-31T17:31:12;99712.34;;;30.40;48.89
60258;BME280;46115;44.484;11.314;2023-07-31T17:35:15;99710.88;;;30.37;48.90
60258;BME280;46115;44.484;11.314;2023-07-31T17:39:17;99707.69;;;30.72;48.45
60258;BME280;46115;44.484;11.314;2023-07-31T17:43:21;99727.53;;;30.61;50.03
60258;BME280;46115;44.484;11.314;2023-07-31T17:47:23;99734.16;;;30.08;54.15
60258;BME280;46115;44.484;11.314;2023-07-31T17:51:26;99741.47;;;29.70;58.94
60258;BME280;46115;44.484;11.314;2023-07-31T17:55:29;99769.47;;;29.26;63.16
60258;BME280;46115;44.484;11.314;2023-07-31T17:59:33;99769.66;;;28.32;64.75
60258;BME280;46115;44.484;11.314;2023-07-31T18:03:35;99740.09;;;27.07;74.03
60258;BME280;46115;44.484;11.314;2023-07-31T18:07:38;99738.78;;;27.37;73.21
60258;BME280;46115;44.484;11.314;2023-07-31T18:11:40;99738.50;;;26.91;73.53
60258;BME280;46115;44.484;11.314;2023-07-31T18:15:45;99745.25;;;27.36;71.08
60258;BME280;46115;44.484;11.314;2023-07-31T18:19:47;99731.53;;;27.44;72.83
60258;BME280;46115;44.484;11.314;2023-07-31T18:23:50;99731.63;;;26.95;80.48
60258;BME280;46115;44.484;11.314;2023-07-31T18:27:52;99718.66;;;26.90;81.01
60258;BME280;46115;44.484;11.314;2023-07-31T18:31:56;99719.66;;;27.52;81.15
60258;BME280;46115;44.484;11.314;2023-07-31T18:36:02;99708.81;;;27.11;81.38
60258;BME280;46115;44.484;11.314;2023-07-31T18:40:06;99729.56;;;26.69;82.69
60258;BME280;46115;44.484;11.314;2023-07-31T18:44:09;99727.88;;;26.68;83.14
60258;BME280;46115;44.484;11.314;2023-07-31T18:48:13;99735.97;;;26.89;82.82
60258;BME280;46115;44.484;11.314;2023-07-31T18:52:15;99740.88;;;27.00;82.15
60258;BME280;46115;44.484;11.314;2023-07-31T18:56:18;99750.09;;;26.78;82.22
60258;BME280;46115;44.484;11.314;2023-07-31T19:00:20;99717.13;;;26.75;81.40
60258;BME280;46115;44.484;11.314;2023-07-31T19:04:24;99751.84;;;26.92;82.34
60258;BME280;46115;44.484;11.314;2023-07-31T19:08:26;99748.53;;;26.97;82.70
60258;BME280;46115;44.484;11.314;2023-07-31T19:12:29;99752.81;;;26.78;83.22
60258;BME280;46115;44.484;11.314;2023-07-31T19:16:32;99745.53;;;26.85;82.30
60258;BME280;46115;44.484;11.314;2023-07-31T19:20:36;99755.72;;;26.77;83.68
60258;BME280;46115;44.484;11.314;2023-07-31T19:24:38;99757.56;;;26.48;85.26
60258;BME280;46115;44.484;11.314;2023-07-31T19:28:40;99764.50;;;26.15;85.43
60258;BME280;46115;44.484;11.314;2023-07-31T22:06:08;99705.63;;;25.51;78.65
60258;BME280;46115;44.484;11.314;2023-07-31T22:10:11;99709.63;;;25.55;78.50
60258;BME280;46115;44.484;11.314;2023-07-31T22:14:14;99716.00;;;25.47;78.72
60258;BME280;46115;44.484;11.314;2023-07-31T22:18:16;99721.94;;;25.58;77.63
60258;BME280;46115;44.484;11.314;2023-07-31T22:22:20;99707.50;;;24.77;81.40
60258;BME280;46115;44.484;11.314;2023-07-31T22:26:22;99702.00;;;24.85;82.23
60258;BME280;46115;44.484;11.314;2023-07-31T22:30:25;99706.75;;;24.68;82.54
60258;BME280;46115;44.484;11.314;2023-07-31T22:34:27;99708.25;;;24.71;82.57
60258;BME280;46115;44.484;11.314;2023-07-31T22:38:31;99696.75;;;25.06;82.59
60258;BME280;46115;44.484;11.314;2023-07-31T22:42:35;99697.25;;;25.31;81.07
60258;BME280;46115;44.484;11.314;2023-07-31T22:46:38;99680.25;;;24.49;85.30
60258;BME280;46115;44.484;11.314;2023-07-31T22:50:40;99676.91;;;24.47;84.22
60258;BME280;46115;44.484;11.314;2023-07-31T22:54:44;99672.06;;;24.42;84.23
60258;BME280;46115;44.484;11.314;2023-07-31T22:58:47;99655.19;;;24.17;84.63
60258;BME280;46115;44.484;11.314;2023-07-31T23:02:49;99630.22;;;24.01;84.14
60258;BME280;46115;44.484;11.314;2023-07-31T23:06:52;99622.59;;;24.19;82.77
60258;BME280;46115;44.484;11.314;2023-07-31T23:10:55;99634.81;;;23.92;84.14
60258;BME280;46115;44.484;11.314;2023-07-31T23:14:58;99623.88;;;23.71;85.18
60258;BME280;46115;44.484;11.314;2023-07-31T23:19:00;99620.25;;;23.78;84.19
60258;BME280;46115;44.484;11.314;2023-07-31T23:23:03;99611.28;;;23.63;84.42
60258;BME280;46115;44.484;11.314;2023-07-31T23:27:07;99603.59;;;23.75;84.61
60258;BME280;46115;44.484;11.314;2023-07-31T23:31:09;99597.44;;;23.35;85.85
60258;BME280;46115;44.484;11.314;2023-07-31T23:35:12;99599.84;;;23.61;84.36
60258;BME280;46115;44.484;11.314;2023-07-31T23:39:14;99596.69;;;23.72;83.78
60258;BME280;46115;44.484;11.314;2023-07-31T23:43:18;99597.47;;;23.58;83.73